createdAt,value
2023-04-18T00:00:10.808Z,80.24
2023-04-18T00:02:39.915Z,80.09
2023-04-18T00:05:08.211Z,80.62
2023-04-18T00:07:35.693Z,80.63
2023-04-18T00:10:03.992Z,82.72
2023-04-18T00:12:34.227Z,83.55
2023-04-18T00:15:03.036Z,84.30
2023-04-18T00:17:32.832Z,83.90
2023-04-18T00:20:02.298Z,83.75
2023-04-18T00:22:29.390Z,83.81
2023-04-18T00:24:56.521Z,84.05
2023-04-18T00:27:23.915Z,83.63
2023-04-18T00:29:51.361Z,85.85
2023-04-18T00:32:19.700Z,85.54
2023-04-18T00:34:47.164Z,85.78
2023-04-18T00:37:14.341Z,85.57
2023-04-18T00:39:42.343Z,84.87
2023-04-18T00:42:09.747Z,84.95
2023-04-18T00:44:36.997Z,84.55
2023-04-18T00:47:04.273Z,84.00
2023-04-18T00:49:32.170Z,83.96
2023-04-18T00:52:00.287Z,85.42
2023-04-18T00:54:27.797Z,84.36
2023-04-18T00:56:55.383Z,84.84
2023-04-18T00:59:22.641Z,84.43
2023-04-18T01:01:49.920Z,84.87
2023-04-18T01:04:17.598Z,85.19
2023-04-18T01:06:45.744Z,85.10
2023-04-18T01:09:13.969Z,86.34
2023-04-18T01:11:41.739Z,86.08
2023-04-18T01:14:09.521Z,85.84
2023-04-18T01:16:40.079Z,84.85
2023-04-18T01:19:07.586Z,85.53
2023-04-18T01:21:36.110Z,85.70
2023-04-18T01:24:12.020Z,85.30
2023-04-18T01:26:43.720Z,86.07
2023-04-18T01:29:11.495Z,86.52
2023-04-18T01:31:39.607Z,86.22
2023-04-18T01:34:08.286Z,86.33
2023-04-18T01:36:36.361Z,85.68
2023-04-18T01:39:03.831Z,86.10
2023-04-18T01:41:32.838Z,85.83
2023-04-18T01:44:00.634Z,85.50
2023-04-18T01:46:28.499Z,86.48
2023-04-18T01:48:56.910Z,88.19
2023-04-18T01:51:24.115Z,89.45
2023-04-18T01:53:53.955Z,89.27
2023-04-18T01:56:21.539Z,90.60
2023-04-18T01:58:48.765Z,90.43
2023-04-18T02:01:15.942Z,89.88
2023-04-18T02:03:43.578Z,90.43
2023-04-18T02:06:13.130Z,89.63
2023-04-18T02:08:40.734Z,89.85
2023-04-18T02:11:08.235Z,89.23
2023-04-18T02:13:35.521Z,90.01
2023-04-18T02:16:12.662Z,89.16
2023-04-18T02:18:42.554Z,88.65
2023-04-18T02:21:11.294Z,87.83
2023-04-18T02:23:38.564Z,87.94
2023-04-18T02:26:05.825Z,88.19
2023-04-18T02:28:33.345Z,88.60
2023-04-18T02:31:03.512Z,87.26
2023-04-18T02:33:30.722Z,87.72
2023-04-18T02:35:58.177Z,86.65
2023-04-18T02:38:25.263Z,86.92
2023-04-18T02:40:52.421Z,86.04
2023-04-18T02:43:20.802Z,86.56
2023-04-18T02:45:47.995Z,85.78
2023-04-18T02:48:15.346Z,85.77
2023-04-18T02:50:44.281Z,84.99
2023-04-18T02:53:11.400Z,84.02
2023-04-18T02:55:39.111Z,82.87
2023-04-18T02:58:06.784Z,82.98
2023-04-18T03:00:36.782Z,82.80
2023-04-18T03:03:05.679Z,82.47
2023-04-18T03:05:33.822Z,81.66
2023-04-18T03:08:01.690Z,83.16
2023-04-18T03:10:29.314Z,85.05
2023-04-18T03:12:57.156Z,86.73
2023-04-18T03:15:24.886Z,88.29
2023-04-18T03:17:52.716Z,88.62
2023-04-18T03:20:20.942Z,89.82
2023-04-18T03:22:48.103Z,91.59
2023-04-18T03:25:17.021Z,92.61
2023-04-18T03:27:44.760Z,93.41
2023-04-18T03:30:13.398Z,93.40
2023-04-18T03:32:42.270Z,93.19
2023-04-18T03:35:09.836Z,94.25
2023-04-18T03:37:37.207Z,93.98
2023-04-18T03:40:08.169Z,94.07
2023-04-18T03:42:36.290Z,94.01
2023-04-18T03:45:03.709Z,94.60
2023-04-18T03:47:31.946Z,96.17
2023-04-18T03:49:59.564Z,96.23
2023-04-18T03:52:28.021Z,96.03
2023-04-18T03:54:57.450Z,96.86
2023-04-18T03:57:25.039Z,97.56
2023-04-18T03:59:52.308Z,97.73
2023-04-18T04:02:19.586Z,97.57
2023-04-18T04:04:47.300Z,96.83
2023-04-18T04:07:14.707Z,95.86
2023-04-18T04:09:42.221Z,95.58
2023-04-18T04:12:09.673Z,94.73
2023-04-18T04:14:37.199Z,94.37
2023-04-18T04:17:04.562Z,94.43
2023-04-18T04:19:32.253Z,92.72
2023-04-18T04:22:01.261Z,91.86
2023-04-18T04:24:29.160Z,90.53
2023-04-18T04:26:57.205Z,89.62
2023-04-18T04:29:24.571Z,88.94
2023-04-18T04:31:52.467Z,88.77
2023-04-18T04:34:21.659Z,88.49
2023-04-18T04:36:49.116Z,88.96
2023-04-18T04:39:17.445Z,88.92
2023-04-18T04:41:47.145Z,89.02
2023-04-18T04:44:17.667Z,88.64
2023-04-18T04:46:45.230Z,86.46
2023-04-18T04:49:14.369Z,84.21
2023-04-18T04:51:42.998Z,80.29
2023-04-18T04:54:10.855Z,79.58
2023-04-18T04:56:38.462Z,78.60
2023-04-18T04:59:05.997Z,77.95
2023-04-18T05:01:33.672Z,76.69
2023-04-18T05:04:01.206Z,77.62
2023-04-18T05:06:28.438Z,77.12
2023-04-18T05:08:57.513Z,75.52
2023-04-18T05:11:24.947Z,76.79
2023-04-18T05:13:52.135Z,76.79
2023-04-18T05:16:19.513Z,76.38
2023-04-18T05:18:47.035Z,78.92
2023-04-18T05:21:14.191Z,79.36
2023-04-18T05:23:41.447Z,79.05
2023-04-18T05:26:08.830Z,78.99
2023-04-18T05:28:35.946Z,79.39
2023-04-18T05:31:03.233Z,79.55
2023-04-18T05:33:31.557Z,80.00
2023-04-18T05:35:59.116Z,82.98
2023-04-18T05:38:26.363Z,84.88
2023-04-18T05:40:55.692Z,87.86
2023-04-18T05:43:23.411Z,87.96
2023-04-18T05:45:52.752Z,87.61
2023-04-18T05:48:21.644Z,87.35
2023-04-18T05:50:48.853Z,85.45
2023-04-18T05:53:15.995Z,85.61
2023-04-18T05:55:43.814Z,85.99
2023-04-18T05:58:10.942Z,86.52
2023-04-18T06:00:38.096Z,84.94
2023-04-18T06:03:07.186Z,83.26
2023-04-18T06:05:35.841Z,81.67
2023-04-18T06:08:03.632Z,80.49
2023-04-18T06:10:31.113Z,79.71
2023-04-18T06:12:58.315Z,78.79
2023-04-18T06:15:25.769Z,77.93
2023-04-18T06:17:53.267Z,77.14
2023-04-18T06:20:20.551Z,79.64
2023-04-18T06:22:47.679Z,81.78
2023-04-18T06:25:16.139Z,81.54
2023-04-18T06:27:43.326Z,83.39
2023-04-18T06:30:10.983Z,84.33
2023-04-18T06:32:38.611Z,85.20
2023-04-18T06:35:06.532Z,86.20
2023-04-18T06:37:33.757Z,86.05
2023-04-18T06:40:01.256Z,86.45
2023-04-18T06:42:28.470Z,86.13
2023-04-18T06:44:55.886Z,86.10
2023-04-18T06:47:23.926Z,88.28
2023-04-18T06:49:51.060Z,86.37
2023-04-18T06:52:18.189Z,84.99
2023-04-18T06:54:45.880Z,88.58
2023-04-18T06:57:13.100Z,86.74
2023-04-18T06:59:41.408Z,83.87
2023-04-18T07:02:08.945Z,82.83
2023-04-18T07:04:36.264Z,81.66
2023-04-18T07:07:05.214Z,80.79
2023-04-18T07:09:32.957Z,84.22
2023-04-18T07:12:00.242Z,81.19
2023-04-18T07:14:28.455Z,82.47
2023-04-18T07:16:57.642Z,76.97
2023-04-18T07:19:24.856Z,78.40
2023-04-18T07:21:52.064Z,78.89
2023-04-18T07:24:19.479Z,78.25
2023-04-18T07:26:46.612Z,81.66
2023-04-18T07:29:13.743Z,78.31
2023-04-18T07:31:41.214Z,78.55
2023-04-18T07:34:09.168Z,75.37
2023-04-18T07:36:36.445Z,77.00
2023-04-18T07:39:03.890Z,77.45
2023-04-18T07:41:31.057Z,76.76
2023-04-18T07:43:58.195Z,76.00
2023-04-18T07:46:25.803Z,74.38
2023-04-18T07:48:53.074Z,75.66
2023-04-18T07:51:21.595Z,72.19
2023-04-18T07:53:48.960Z,68.42
2023-04-18T07:56:16.332Z,71.20
2023-04-18T07:58:43.472Z,71.77
2023-04-18T08:01:14.148Z,68.46
2023-04-18T08:03:42.040Z,69.41
2023-04-18T08:06:09.822Z,68.92
2023-04-18T08:08:37.007Z,72.14
2023-04-18T08:11:04.455Z,70.71
2023-04-18T08:13:31.623Z,65.16
2023-04-18T08:15:59.825Z,67.36
2023-04-18T08:18:27.384Z,68.45
2023-04-18T08:20:54.852Z,67.60
2023-04-18T08:23:22.054Z,65.61
2023-04-18T08:25:49.554Z,64.50
2023-04-18T08:28:17.063Z,65.88
2023-04-18T08:30:48.673Z,65.74
2023-04-18T08:33:16.245Z,63.33
2023-04-18T08:35:43.499Z,68.79
2023-04-18T08:38:10.842Z,64.62
2023-04-18T08:40:38.597Z,62.53
2023-04-18T08:43:09.374Z,68.15
2023-04-18T08:45:37.005Z,69.46
2023-04-18T08:48:04.676Z,65.26
2023-04-18T08:50:32.377Z,65.35
2023-04-18T08:53:04.056Z,60.40
2023-04-18T08:55:33.590Z,68.46
2023-04-18T08:58:01.355Z,65.51
2023-04-18T09:00:29.323Z,62.76
2023-04-18T09:02:57.633Z,62.85
2023-04-18T09:05:26.900Z,56.75
2023-04-18T09:07:56.175Z,57.25
2023-04-18T09:10:32.729Z,55.51
2023-04-18T09:13:03.109Z,59.44
2023-04-18T09:15:31.197Z,57.68
2023-04-18T09:18:01.654Z,60.30
2023-04-18T09:20:41.369Z,57.95
2023-04-18T09:23:11.127Z,58.53
2023-04-18T09:25:44.238Z,58.23
2023-04-18T09:28:23.215Z,56.66
2023-04-18T09:30:54.377Z,56.01
2023-04-18T09:33:32.970Z,55.74
2023-04-18T09:36:27.262Z,56.90
2023-04-18T09:38:56.545Z,55.92
2023-04-18T09:41:24.418Z,57.66
2023-04-18T09:44:15.727Z,58.87
2023-04-18T09:46:47.049Z,52.98
2023-04-18T09:49:16.062Z,58.11
2023-04-18T09:51:44.708Z,54.74
2023-04-18T09:54:16.368Z,52.54
2023-04-18T09:56:44.982Z,55.62
2023-04-18T09:59:13.225Z,54.15
2023-04-18T10:01:41.090Z,52.83
2023-04-18T10:04:09.821Z,55.84
2023-04-18T10:06:39.786Z,56.76
2023-04-18T10:09:08.737Z,56.06
2023-04-18T10:11:36.529Z,55.52
2023-04-18T10:14:07.843Z,53.44
2023-04-18T10:16:36.396Z,55.19
2023-04-18T10:19:24.696Z,52.81
2023-04-18T10:21:56.797Z,52.27
2023-04-18T10:24:56.297Z,55.45
2023-04-18T10:27:48.774Z,53.19
2023-04-18T10:30:16.972Z,56.48
2023-04-18T10:32:47.724Z,53.27
2023-04-18T10:35:15.304Z,52.10
2023-04-18T10:37:52.229Z,50.81
2023-04-18T10:40:33.704Z,47.09
2023-04-18T10:43:01.214Z,50.84
2023-04-18T10:45:31.343Z,49.29
2023-04-18T10:48:29.909Z,49.38
2023-04-18T10:51:15.760Z,46.97
2023-04-18T10:53:53.235Z,46.48
2023-04-18T10:56:20.683Z,45.42
2023-04-18T10:58:51.133Z,45.69
2023-04-18T11:01:31.672Z,44.97
2023-04-18T11:04:00.427Z,45.19
2023-04-18T11:06:28.484Z,42.92
2023-04-18T11:09:12.486Z,46.98
2023-04-18T11:11:40.200Z,43.36
2023-04-18T11:14:07.594Z,45.02
2023-04-18T11:16:35.254Z,45.49
2023-04-18T11:19:20.205Z,46.08
2023-04-18T11:21:47.521Z,49.04
2023-04-18T11:24:34.297Z,48.38
2023-04-18T11:27:03.905Z,47.16
2023-04-18T11:29:31.447Z,48.58
2023-04-18T11:31:58.939Z,49.95
2023-04-18T11:34:32.786Z,51.12
2023-04-18T11:37:00.353Z,47.98
2023-04-18T11:39:27.927Z,47.41
2023-04-18T11:41:57.141Z,47.46
2023-04-18T11:44:25.191Z,45.60
2023-04-18T11:46:53.271Z,47.07
2023-04-18T11:49:31.316Z,47.88
2023-04-18T11:51:59.644Z,45.03
2023-04-18T11:54:43.566Z,45.96
2023-04-18T11:57:22.292Z,43.86
2023-04-18T11:59:54.340Z,43.39
2023-04-18T12:02:23.166Z,42.75
2023-04-18T12:04:58.364Z,43.74
2023-04-18T12:07:40.296Z,44.72
2023-04-18T12:10:19.894Z,43.11
2023-04-18T12:12:51.838Z,41.93
2023-04-18T12:15:19.961Z,42.70
2023-04-18T12:17:53.830Z,44.20
2023-04-18T12:20:24.863Z,42.06
2023-04-18T12:22:54.204Z,40.67
2023-04-18T12:25:26.216Z,42.20
2023-04-18T12:27:53.941Z,42.91
2023-04-18T12:30:27.624Z,39.38
2023-04-18T12:32:56.661Z,37.35
2023-04-18T12:35:24.497Z,39.62
2023-04-18T12:37:52.986Z,37.17
2023-04-18T12:40:21.909Z,38.61
2023-04-18T12:42:50.681Z,38.12
2023-04-18T12:45:18.969Z,33.07
2023-04-18T12:47:48.592Z,35.75
2023-04-18T12:50:21.271Z,36.25
2023-04-18T12:52:49.266Z,37.75
2023-04-18T12:55:16.866Z,37.65
2023-04-18T12:57:44.386Z,33.89
2023-04-18T13:00:13.510Z,36.77
2023-04-18T13:02:44.131Z,36.40
2023-04-18T13:05:13.685Z,35.30
2023-04-18T13:07:42.683Z,34.26
2023-04-18T13:10:11.863Z,35.20
2023-04-18T13:12:40.134Z,33.54
2023-04-18T13:15:08.728Z,35.86
2023-04-18T13:17:36.942Z,35.29
2023-04-18T13:20:10.575Z,35.36
2023-04-18T13:22:38.960Z,34.94
2023-04-18T13:25:08.191Z,34.55
2023-04-18T13:27:35.328Z,34.86
2023-04-18T13:30:02.890Z,35.48
2023-04-18T13:32:30.112Z,35.59
2023-04-18T13:34:57.285Z,34.20
2023-04-18T13:37:25.028Z,35.49
2023-04-18T13:39:52.268Z,36.28
2023-04-18T13:42:20.099Z,36.75
2023-04-18T13:44:47.944Z,36.56
2023-04-18T13:47:15.048Z,37.76
2023-04-18T13:49:42.256Z,38.74
2023-04-18T13:52:09.641Z,39.52
2023-04-18T13:54:37.662Z,38.66
2023-04-18T13:57:06.996Z,40.25
2023-04-18T13:59:34.448Z,40.35
2023-04-18T14:02:01.674Z,40.91
2023-04-18T14:04:29.493Z,41.47
2023-04-18T14:06:56.853Z,39.97
2023-04-18T14:09:24.081Z,39.04
2023-04-18T14:11:51.669Z,39.37
2023-04-18T14:14:18.858Z,35.92
2023-04-18T14:16:46.152Z,35.83
2023-04-18T14:19:13.811Z,36.28
2023-04-18T14:21:41.239Z,37.75
2023-04-18T14:24:08.647Z,35.65
2023-04-18T14:26:36.050Z,37.37
2023-04-18T14:29:05.090Z,37.01
2023-04-18T14:31:32.278Z,36.34
2023-04-18T14:33:59.845Z,36.21
2023-04-18T14:36:27.727Z,34.11
2023-04-18T14:38:55.182Z,34.38
2023-04-18T14:41:22.654Z,32.36
2023-04-18T14:43:49.749Z,32.41
2023-04-18T14:46:17.059Z,31.95
2023-04-18T14:48:46.876Z,30.22
2023-04-18T14:51:16.306Z,32.68
2023-04-18T14:53:44.536Z,31.89
2023-04-18T14:56:12.011Z,30.66
2023-04-18T14:58:39.124Z,31.24
2023-04-18T15:01:06.345Z,36.66
2023-04-18T15:03:34.219Z,33.01
2023-04-18T15:06:01.676Z,31.27
2023-04-18T15:08:30.763Z,32.44
2023-04-18T15:10:59.850Z,31.46
2023-04-18T15:13:27.007Z,35.40
2023-04-18T15:15:56.897Z,37.10
2023-04-18T15:18:24.420Z,34.87
2023-04-18T15:20:51.843Z,36.87
2023-04-18T15:23:19.101Z,33.87
2023-04-18T15:25:46.613Z,34.48
2023-04-18T15:28:14.014Z,31.48
2023-04-18T15:30:41.166Z,32.81
2023-04-18T15:33:08.847Z,33.14
2023-04-18T15:35:36.164Z,33.05
2023-04-18T15:38:03.454Z,32.71
2023-04-18T15:40:32.906Z,33.88
2023-04-18T15:43:00.204Z,34.27
2023-04-18T15:45:27.346Z,34.97
2023-04-18T15:47:54.868Z,34.96
2023-04-18T15:50:23.613Z,36.13
2023-04-18T15:52:50.807Z,36.10
2023-04-18T15:55:18.276Z,36.29
2023-04-18T15:57:45.415Z,36.77
2023-04-18T16:00:16.354Z,34.76
2023-04-18T16:02:44.569Z,36.11
2023-04-18T16:05:12.929Z,36.74
2023-04-18T16:07:41.333Z,37.06
2023-04-18T16:10:10.315Z,36.16
2023-04-18T16:12:39.025Z,37.79
2023-04-18T16:15:08.402Z,36.27
2023-04-18T16:17:37.069Z,38.79
2023-04-18T16:20:06.258Z,37.22
2023-04-18T16:22:33.624Z,37.96
2023-04-18T16:25:01.033Z,38.19
2023-04-18T16:27:28.507Z,38.20
2023-04-18T16:29:55.838Z,38.10
2023-04-18T16:32:23.251Z,37.81
2023-04-18T16:34:50.409Z,37.94
2023-04-18T16:37:17.603Z,37.65
2023-04-18T16:39:45.121Z,39.04
2023-04-18T16:42:14.877Z,38.27
2023-04-18T16:44:44.703Z,38.49
2023-04-18T16:47:12.199Z,39.65
2023-04-18T16:49:39.454Z,39.00
2023-04-18T16:52:06.687Z,39.13
2023-04-18T16:54:34.170Z,42.24
2023-04-18T16:57:01.728Z,41.71
2023-04-18T16:59:28.909Z,40.80
2023-04-18T17:01:56.503Z,44.38
2023-04-18T17:04:26.782Z,45.54
2023-04-18T17:06:54.101Z,46.70
2023-04-18T17:09:21.678Z,53.85
2023-04-18T17:11:49.028Z,54.03
2023-04-18T17:14:17.438Z,54.92
2023-04-18T17:16:44.978Z,55.00
2023-04-18T17:19:12.369Z,55.50
2023-04-18T17:21:39.619Z,55.88
2023-04-18T17:24:07.698Z,55.64
2023-04-18T17:26:36.015Z,57.91
2023-04-18T17:29:04.348Z,59.23
2023-04-18T17:31:32.508Z,60.53
2023-04-18T17:34:00.351Z,61.99
2023-04-18T17:36:27.794Z,63.13
2023-04-18T17:38:56.115Z,63.50
2023-04-18T17:41:23.277Z,63.92
2023-04-18T17:43:53.344Z,62.13
2023-04-18T17:46:20.955Z,62.54
2023-04-18T17:48:48.623Z,60.29
2023-04-18T17:51:16.540Z,63.02
2023-04-18T17:53:44.074Z,62.08
2023-04-18T17:56:11.434Z,62.84
2023-04-18T17:58:39.488Z,62.11
2023-04-18T18:01:17.597Z,63.24
2023-04-18T18:03:45.643Z,63.40
2023-04-18T18:06:14.206Z,63.74
2023-04-18T18:08:43.018Z,63.74
2023-04-18T18:11:10.789Z,62.75
2023-04-18T18:13:39.080Z,63.44
2023-04-18T18:16:07.074Z,62.75
2023-04-18T18:18:35.056Z,64.25
2023-04-18T18:21:02.375Z,63.85
2023-04-18T18:23:29.673Z,63.85
2023-04-18T18:25:57.191Z,64.08
2023-04-18T18:28:24.549Z,64.54
2023-04-18T18:30:51.906Z,63.11
2023-04-18T18:33:19.631Z,63.51
2023-04-18T18:35:46.806Z,63.17
2023-04-18T18:38:14.056Z,63.82
2023-04-18T18:40:41.486Z,63.96
2023-04-18T18:43:08.615Z,63.79
2023-04-18T18:45:35.749Z,63.21
2023-04-18T18:48:03.975Z,64.25
2023-04-18T18:50:31.191Z,63.61
2023-04-18T18:52:58.329Z,63.33
2023-04-18T18:55:25.802Z,63.69
2023-04-18T18:57:53.284Z,63.42
2023-04-18T19:00:20.536Z,63.94
2023-04-18T19:02:48.289Z,63.52
2023-04-18T19:05:16.889Z,63.74
2023-04-18T19:07:44.079Z,64.39
2023-04-18T19:10:11.628Z,64.52
2023-04-18T19:12:38.837Z,63.29
2023-04-18T19:15:06.767Z,64.28
2023-04-18T19:17:34.485Z,62.33
2023-04-18T19:20:01.950Z,63.26
2023-04-18T19:22:29.882Z,61.76
2023-04-18T19:24:58.459Z,61.14
2023-04-18T19:27:25.645Z,60.85
2023-04-18T19:29:52.826Z,60.73
2023-04-18T19:32:20.639Z,55.32
2023-04-18T19:34:47.926Z,58.31
2023-04-18T19:37:15.090Z,59.00
2023-04-18T19:39:42.557Z,56.97
2023-04-18T19:42:10.334Z,56.31
2023-04-18T19:44:37.521Z,55.71
2023-04-18T19:47:05.049Z,53.33
2023-04-18T19:49:32.281Z,52.92
2023-04-18T19:51:59.472Z,52.74
2023-04-18T19:54:27.006Z,53.52
2023-04-18T19:56:54.212Z,53.71
2023-04-18T19:59:21.410Z,55.08
2023-04-18T20:01:48.861Z,56.35
2023-04-18T20:04:16.464Z,55.54
2023-04-18T20:06:44.570Z,58.56
2023-04-18T20:09:16.679Z,58.94
2023-04-18T20:11:44.599Z,59.75
2023-04-18T20:14:11.860Z,58.87
2023-04-18T20:16:39.192Z,63.11
2023-04-18T20:19:06.649Z,65.94
2023-04-18T20:21:33.927Z,68.10
2023-04-18T20:24:01.075Z,67.54
2023-04-18T20:26:28.542Z,68.82
2023-04-18T20:28:55.648Z,69.75
2023-04-18T20:31:23.482Z,69.17
2023-04-18T20:33:50.904Z,68.43
2023-04-18T20:36:18.316Z,69.85
2023-04-18T20:38:45.401Z,70.17
2023-04-18T20:41:18.296Z,69.14
2023-04-18T20:43:46.874Z,67.46
2023-04-18T20:46:14.523Z,67.57
2023-04-18T20:48:44.480Z,67.81
2023-04-18T20:51:11.614Z,68.29
2023-04-18T20:53:38.998Z,65.91
2023-04-18T20:56:06.302Z,65.68
2023-04-18T20:58:33.431Z,64.29
2023-04-18T21:01:00.968Z,63.26
2023-04-18T21:03:28.286Z,61.45
2023-04-18T21:05:56.042Z,59.78
2023-04-18T21:08:23.449Z,55.53
2023-04-18T21:10:50.563Z,56.04
2023-04-18T21:13:17.838Z,53.11
2023-04-18T21:15:45.295Z,51.72
2023-04-18T21:18:12.549Z,51.95
2023-04-18T21:20:39.799Z,52.09
2023-04-18T21:23:07.229Z,51.90
2023-04-18T21:25:34.427Z,52.21
2023-04-18T21:28:02.354Z,51.18
2023-04-18T21:30:29.742Z,51.43
2023-04-18T21:32:56.934Z,51.64
2023-04-18T21:35:24.924Z,51.41
2023-04-18T21:37:52.578Z,50.68
2023-04-18T21:40:19.806Z,50.66
2023-04-18T21:42:48.168Z,51.03
2023-04-18T21:45:17.734Z,51.06
2023-04-18T21:47:44.951Z,56.67
2023-04-18T21:50:12.281Z,58.53
2023-04-18T21:52:39.768Z,62.58
2023-04-18T21:55:07.201Z,60.81
2023-04-18T21:57:34.331Z,62.54
2023-04-18T22:00:01.739Z,63.96
2023-04-18T22:02:39.336Z,64.65
2023-04-18T22:05:07.747Z,65.56
2023-04-18T22:07:40.796Z,66.58
2023-04-18T22:10:18.391Z,67.00
2023-04-18T22:12:45.797Z,68.51
2023-04-18T22:15:12.921Z,67.56
2023-04-18T22:17:41.679Z,68.43
2023-04-18T22:20:10.735Z,67.63
2023-04-18T22:22:37.892Z,60.33
2023-04-18T22:25:07.268Z,60.66
2023-04-18T22:27:34.402Z,55.94
2023-04-18T22:30:01.565Z,56.02
2023-04-18T22:32:29.071Z,55.37
2023-04-18T22:34:56.203Z,56.98
2023-04-18T22:37:23.435Z,60.38
2023-04-18T22:39:50.838Z,60.64
2023-04-18T22:42:17.976Z,63.61
2023-04-18T22:44:45.091Z,62.34
2023-04-18T22:47:12.643Z,64.67
2023-04-18T22:49:40.382Z,66.21
2023-04-18T22:52:08.299Z,64.31
2023-04-18T22:54:39.382Z,62.64
2023-04-18T22:57:06.481Z,63.84
2023-04-18T22:59:34.021Z,62.87
2023-04-18T23:02:01.598Z,65.81
2023-04-18T23:04:31.935Z,64.66
2023-04-18T23:06:59.113Z,64.75
2023-04-18T23:09:27.092Z,65.22
2023-04-18T23:11:54.209Z,64.72
2023-04-18T23:14:21.497Z,67.56
2023-04-18T23:16:48.928Z,66.99
2023-04-18T23:19:16.090Z,66.91
2023-04-18T23:21:43.275Z,62.54
2023-04-18T23:24:12.185Z,65.23
2023-04-18T23:26:40.352Z,63.00
2023-04-18T23:29:07.506Z,64.56
2023-04-18T23:31:35.032Z,61.30
2023-04-18T23:34:02.165Z,60.08
2023-04-18T23:36:29.750Z,59.53
2023-04-18T23:38:57.291Z,57.56
2023-04-18T23:41:24.486Z,55.89
2023-04-18T23:43:51.613Z,54.20
2023-04-18T23:46:19.133Z,52.00
2023-04-18T23:48:46.261Z,53.04
2023-04-18T23:51:13.401Z,52.56
2023-04-18T23:53:40.913Z,52.80
2023-04-18T23:56:08.474Z,53.19
2023-04-18T23:58:35.703Z,52.16
